sensor_id;sensor_type;location;lat;lon;timestamp;P1;durP1;ratioP1;P2;durP2;ratioP2
68680;SDS011;55836;49.858;6.756;2023-05-07T00:01:59;2.30;;;1.70;;
68680;SDS011;55836;49.858;6.756;2023-05-07T00:04:25;2.00;;;1.57;;
68680;SDS011;55836;49.858;6.756;2023-05-07T00:06:53;1.97;;;1.70;;
68680;SDS011;55836;49.858;6.756;2023-05-07T00:09:20;5.17;;;1.67;;
68680;SDS011;55836;49.858;6.756;2023-05-07T00:11:46;1.87;;;1.77;;
68680;SDS011;55836;49.858;6.756;2023-05-07T00:14:12;3.23;;;1.70;;
68680;SDS011;55836;49.858;6.756;2023-05-07T00:16:38;2.67;;;1.57;;
68680;SDS011;55836;49.858;6.756;2023-05-07T00:19:04;3.20;;;1.93;;
68680;SDS011;55836;49.858;6.756;2023-05-07T00:21:30;2.33;;;1.87;;
68680;SDS011;55836;49.858;6.756;2023-05-07T00:23:56;2.07;;;1.70;;
68680;SDS011;55836;49.858;6.756;2023-05-07T00:26:22;2.37;;;1.90;;
68680;SDS011;55836;49.858;6.756;2023-05-07T00:28:48;2.20;;;1.80;;
68680;SDS011;55836;49.858;6.756;2023-05-07T00:31:14;2.43;;;1.57;;
68680;SDS011;55836;49.858;6.756;2023-05-07T00:33:40;1.83;;;1.63;;
68680;SDS011;55836;49.858;6.756;2023-05-07T00:36:06;2.97;;;1.90;;
68680;SDS011;55836;49.858;6.756;2023-05-07T00:38:32;7.03;;;2.17;;
68680;SDS011;55836;49.858;6.756;2023-05-07T00:40:58;3.77;;;1.83;;
68680;SDS011;55836;49.858;6.756;2023-05-07T00:43:24;1.90;;;1.63;;
68680;SDS011;55836;49.858;6.756;2023-05-07T00:45:51;2.83;;;1.80;;
68680;SDS011;55836;49.858;6.756;2023-05-07T00:48:20;2.63;;;1.80;;
68680;SDS011;55836;49.858;6.756;2023-05-07T00:50:46;2.97;;;1.90;;
68680;SDS011;55836;49.858;6.756;2023-05-07T00:53:12;2.73;;;1.60;;
68680;SDS011;55836;49.858;6.756;2023-05-07T00:55:38;2.90;;;1.90;;
68680;SDS011;55836;49.858;6.756;2023-05-07T00:58:04;2.10;;;1.70;;
68680;SDS011;55836;49.858;6.756;2023-05-07T01:00:33;2.43;;;1.60;;
68680;SDS011;55836;49.858;6.756;2023-05-07T01:02:59;2.37;;;1.80;;
68680;SDS011;55836;49.858;6.756;2023-05-07T01:05:25;2.10;;;1.63;;
68680;SDS011;55836;49.858;6.756;2023-05-07T01:07:52;2.30;;;1.80;;
68680;SDS011;55836;49.858;6.756;2023-05-07T01:10:20;2.03;;;1.40;;
68680;SDS011;55836;49.858;6.756;2023-05-07T01:12:46;3.30;;;1.73;;
68680;SDS011;55836;49.858;6.756;2023-05-07T01:15:12;2.47;;;1.83;;
68680;SDS011;55836;49.858;6.756;2023-05-07T01:17:39;3.33;;;1.60;;
68680;SDS011;55836;49.858;6.756;2023-05-07T01:20:06;2.97;;;1.77;;
68680;SDS011;55836;49.858;6.756;2023-05-07T01:22:32;3.30;;;1.60;;
68680;SDS011;55836;49.858;6.756;2023-05-07T01:24:59;1.90;;;1.80;;
68680;SDS011;55836;49.858;6.756;2023-05-07T01:27:27;2.73;;;1.77;;
68680;SDS011;55836;49.858;6.756;2023-05-07T01:29:53;1.60;;;1.50;;
68680;SDS011;55836;49.858;6.756;2023-05-07T01:32:21;2.50;;;1.60;;
68680;SDS011;55836;49.858;6.756;2023-05-07T01:34:49;3.00;;;1.70;;
68680;SDS011;55836;49.858;6.756;2023-05-07T01:37:16;4.73;;;1.77;;
68680;SDS011;55836;49.858;6.756;2023-05-07T01:39:42;2.73;;;2.13;;
68680;SDS011;55836;49.858;6.756;2023-05-07T01:42:08;2.77;;;1.90;;
68680;SDS011;55836;49.858;6.756;2023-05-07T01:44:35;2.07;;;1.77;;
68680;SDS011;55836;49.858;6.756;2023-05-07T01:47:01;3.60;;;1.90;;
68680;SDS011;55836;49.858;6.756;2023-05-07T01:49:27;4.17;;;2.10;;
68680;SDS011;55836;49.858;6.756;2023-05-07T01:51:53;2.93;;;1.97;;
68680;SDS011;55836;49.858;6.756;2023-05-07T01:54:24;2.60;;;2.00;;
68680;SDS011;55836;49.858;6.756;2023-05-07T01:56:52;2.40;;;2.20;;
68680;SDS011;55836;49.858;6.756;2023-05-07T01:59:18;2.33;;;2.07;;
68680;SDS011;55836;49.858;6.756;2023-05-07T02:01:44;3.50;;;2.37;;
68680;SDS011;55836;49.858;6.756;2023-05-07T02:04:10;2.10;;;1.60;;
68680;SDS011;55836;49.858;6.756;2023-05-07T02:06:36;2.03;;;1.83;;
68680;SDS011;55836;49.858;6.756;2023-05-07T02:09:02;3.30;;;1.80;;
68680;SDS011;55836;49.858;6.756;2023-05-07T02:11:28;2.30;;;1.93;;
68680;SDS011;55836;49.858;6.756;2023-05-07T02:13:55;3.40;;;1.80;;
68680;SDS011;55836;49.858;6.756;2023-05-07T02:16:21;2.93;;;1.80;;
68680;SDS011;55836;49.858;6.756;2023-05-07T02:18:48;3.77;;;1.67;;
68680;SDS011;55836;49.858;6.756;2023-05-07T02:21:14;3.27;;;2.00;;
68680;SDS011;55836;49.858;6.756;2023-05-07T02:23:40;2.60;;;1.87;;
68680;SDS011;55836;49.858;6.756;2023-05-07T02:26:06;1.73;;;1.47;;
68680;SDS011;55836;49.858;6.756;2023-05-07T02:28:32;2.03;;;1.80;;
68680;SDS011;55836;49.858;6.756;2023-05-07T02:31:02;3.67;;;1.70;;
68680;SDS011;55836;49.858;6.756;2023-05-07T02:33:28;3.80;;;2.00;;
68680;SDS011;55836;49.858;6.756;2023-05-07T02:35:54;2.23;;;1.80;;
68680;SDS011;55836;49.858;6.756;2023-05-07T02:38:20;2.93;;;1.70;;
68680;SDS011;55836;49.858;6.756;2023-05-07T02:40:46;4.07;;;1.90;;
68680;SDS011;55836;49.858;6.756;2023-05-07T02:43:12;2.63;;;1.60;;
68680;SDS011;55836;49.858;6.756;2023-05-07T02:45:38;2.37;;;2.00;;
68680;SDS011;55836;49.858;6.756;2023-05-07T02:48:08;2.83;;;1.80;;
68680;SDS011;55836;49.858;6.756;2023-05-07T02:50:34;1.87;;;1.77;;
68680;SDS011;55836;49.858;6.756;2023-05-07T02:53:00;4.17;;;1.83;;
68680;SDS011;55836;49.858;6.756;2023-05-07T02:55:26;3.03;;;2.00;;
68680;SDS011;55836;49.858;6.756;2023-05-07T02:57:52;3.07;;;1.67;;
68680;SDS011;55836;49.858;6.756;2023-05-07T03:00:18;2.00;;;1.80;;
68680;SDS011;55836;49.858;6.756;2023-05-07T03:02:45;2.83;;;1.90;;
68680;SDS011;55836;49.858;6.756;2023-05-07T03:05:11;2.57;;;1.77;;
68680;SDS011;55836;49.858;6.756;2023-05-07T03:07:37;2.90;;;1.90;;
68680;SDS011;55836;49.858;6.756;2023-05-07T03:10:04;2.67;;;1.93;;
68680;SDS011;55836;49.858;6.756;2023-05-07T03:12:30;1.77;;;1.60;;
68680;SDS011;55836;49.858;6.756;2023-05-07T03:14:56;2.57;;;2.03;;
68680;SDS011;55836;49.858;6.756;2023-05-07T03:17:22;2.43;;;1.80;;
68680;SDS011;55836;49.858;6.756;2023-05-07T03:19:48;3.40;;;2.00;;
68680;SDS011;55836;49.858;6.756;2023-05-07T03:22:14;2.10;;;1.90;;
68680;SDS011;55836;49.858;6.756;2023-05-07T03:24:40;3.90;;;2.07;;
68680;SDS011;55836;49.858;6.756;2023-05-07T03:27:06;3.13;;;1.60;;
68680;SDS011;55836;49.858;6.756;2023-05-07T03:29:33;2.80;;;2.00;;
68680;SDS011;55836;49.858;6.756;2023-05-07T03:31:59;3.73;;;2.00;;
68680;SDS011;55836;49.858;6.756;2023-05-07T03:34:25;3.27;;;2.03;;
68680;SDS011;55836;49.858;6.756;2023-05-07T03:36:51;1.80;;;1.70;;
68680;SDS011;55836;49.858;6.756;2023-05-07T03:39:17;3.07;;;1.93;;
68680;SDS011;55836;49.858;6.756;2023-05-07T03:41:47;2.50;;;1.73;;
68680;SDS011;55836;49.858;6.756;2023-05-07T03:44:13;2.73;;;2.13;;
68680;SDS011;55836;49.858;6.756;2023-05-07T03:46:39;2.97;;;2.20;;
68680;SDS011;55836;49.858;6.756;2023-05-07T03:49:05;2.27;;;2.00;;
68680;SDS011;55836;49.858;6.756;2023-05-07T03:51:31;3.00;;;2.00;;
68680;SDS011;55836;49.858;6.756;2023-05-07T03:53:57;4.80;;;1.83;;
68680;SDS011;55836;49.858;6.756;2023-05-07T03:56:23;2.00;;;1.70;;
68680;SDS011;55836;49.858;6.756;2023-05-07T03:58:51;2.50;;;1.97;;
68680;SDS011;55836;49.858;6.756;2023-05-07T04:01:17;3.27;;;2.13;;
68680;SDS011;55836;49.858;6.756;2023-05-07T04:03:43;2.13;;;1.97;;
68680;SDS011;55836;49.858;6.756;2023-05-07T04:06:09;2.93;;;2.30;;
68680;SDS011;55836;49.858;6.756;2023-05-07T04:08:36;5.33;;;2.53;;
68680;SDS011;55836;49.858;6.756;2023-05-07T04:11:02;5.30;;;2.00;;
68680;SDS011;55836;49.858;6.756;2023-05-07T04:13:28;3.07;;;2.40;;
68680;SDS011;55836;49.858;6.756;2023-05-07T04:15:55;2.87;;;2.00;;
68680;SDS011;55836;49.858;6.756;2023-05-07T04:18:21;2.47;;;2.10;;
68680;SDS011;55836;49.858;6.756;2023-05-07T04:20:47;2.70;;;1.83;;
68680;SDS011;55836;49.858;6.756;2023-05-07T04:23:16;2.00;;;1.90;;
68680;SDS011;55836;49.858;6.756;2023-05-07T04:25:42;2.57;;;2.20;;
68680;SDS011;55836;49.858;6.756;2023-05-07T04:28:08;3.93;;;1.90;;
68680;SDS011;55836;49.858;6.756;2023-05-07T04:30:35;2.50;;;1.70;;
68680;SDS011;55836;49.858;6.756;2023-05-07T04:33:01;3.93;;;2.07;;
68680;SDS011;55836;49.858;6.756;2023-05-07T04:35:27;2.33;;;1.70;;
68680;SDS011;55836;49.858;6.756;2023-05-07T04:37:53;2.70;;;2.03;;
68680;SDS011;55836;49.858;6.756;2023-05-07T04:40:19;3.67;;;2.00;;
68680;SDS011;55836;49.858;6.756;2023-05-07T04:42:45;2.50;;;2.30;;
68680;SDS011;55836;49.858;6.756;2023-05-07T04:45:11;2.43;;;2.23;;
68680;SDS011;55836;49.858;6.756;2023-05-07T04:47:38;2.47;;;2.27;;
68680;SDS011;55836;49.858;6.756;2023-05-07T04:50:04;2.97;;;2.67;;
68680;SDS011;55836;49.858;6.756;2023-05-07T04:52:31;5.77;;;3.00;;
68680;SDS011;55836;49.858;6.756;2023-05-07T04:54:58;3.50;;;3.20;;
68680;SDS011;55836;49.858;6.756;2023-05-07T04:57:25;5.10;;;3.00;;
68680;SDS011;55836;49.858;6.756;2023-05-07T04:59:51;3.90;;;2.80;;
68680;SDS011;55836;49.858;6.756;2023-05-07T05:02:17;4.40;;;3.90;;
68680;SDS011;55836;49.858;6.756;2023-05-07T05:04:43;4.00;;;3.70;;
68680;SDS011;55836;49.858;6.756;2023-05-07T05:07:09;4.10;;;2.97;;
68680;SDS011;55836;49.858;6.756;2023-05-07T05:09:35;3.20;;;2.90;;
68680;SDS011;55836;49.858;6.756;2023-05-07T05:12:01;3.00;;;2.70;;
68680;SDS011;55836;49.858;6.756;2023-05-07T05:14:27;2.80;;;2.60;;
68680;SDS011;55836;49.858;6.756;2023-05-07T05:16:53;3.90;;;3.33;;
68680;SDS011;55836;49.858;6.756;2023-05-07T05:19:19;4.60;;;2.73;;
68680;SDS011;55836;49.858;6.756;2023-05-07T05:21:45;3.67;;;2.77;;
68680;SDS011;55836;49.858;6.756;2023-05-07T05:24:12;4.40;;;3.00;;
68680;SDS011;55836;49.858;6.756;2023-05-07T05:26:38;3.47;;;3.17;;
68680;SDS011;55836;49.858;6.756;2023-05-07T05:29:04;3.10;;;2.80;;
68680;SDS011;55836;49.858;6.756;2023-05-07T05:31:30;3.27;;;2.97;;
68680;SDS011;55836;49.858;6.756;2023-05-07T05:33:56;4.47;;;3.30;;
68680;SDS011;55836;49.858;6.756;2023-05-07T05:36:22;3.47;;;2.70;;
68680;SDS011;55836;49.858;6.756;2023-05-07T05:38:48;4.13;;;3.40;;
68680;SDS011;55836;49.858;6.756;2023-05-07T05:41:14;5.37;;;3.07;;
68680;SDS011;55836;49.858;6.756;2023-05-07T05:43:40;4.20;;;3.07;;
68680;SDS011;55836;49.858;6.756;2023-05-07T05:46:06;5.13;;;3.43;;
68680;SDS011;55836;49.858;6.756;2023-05-07T05:48:33;4.33;;;3.40;;
68680;SDS011;55836;49.858;6.756;2023-05-07T05:50:59;3.83;;;3.30;;
68680;SDS011;55836;49.858;6.756;2023-05-07T05:53:25;5.10;;;3.47;;
68680;SDS011;55836;49.858;6.756;2023-05-07T05:55:51;4.37;;;3.47;;
68680;SDS011;55836;49.858;6.756;2023-05-07T05:58:18;3.80;;;3.50;;
68680;SDS011;55836;49.858;6.756;2023-05-07T06:00:44;3.40;;;3.10;;
68680;SDS011;55836;49.858;6.756;2023-05-07T06:03:10;3.37;;;3.07;;
68680;SDS011;55836;49.858;6.756;2023-05-07T06:05:36;5.57;;;3.27;;
68680;SDS011;55836;49.858;6.756;2023-05-07T06:08:02;6.47;;;4.40;;
68680;SDS011;55836;49.858;6.756;2023-05-07T06:10:28;4.17;;;3.40;;
68680;SDS011;55836;49.858;6.756;2023-05-07T06:12:55;7.30;;;3.37;;
68680;SDS011;55836;49.858;6.756;2023-05-07T06:15:21;3.90;;;3.50;;
68680;SDS011;55836;49.858;6.756;2023-05-07T06:17:47;3.70;;;3.37;;
68680;SDS011;55836;49.858;6.756;2023-05-07T06:20:14;3.47;;;3.17;;
68680;SDS011;55836;49.858;6.756;2023-05-07T06:22:40;3.97;;;3.13;;
68680;SDS011;55836;49.858;6.756;2023-05-07T06:25:06;4.23;;;3.70;;
68680;SDS011;55836;49.858;6.756;2023-05-07T06:27:32;3.47;;;3.17;;
68680;SDS011;55836;49.858;6.756;2023-05-07T06:29:58;3.60;;;3.30;;
68680;SDS011;55836;49.858;6.756;2023-05-07T06:32:25;3.30;;;3.00;;
68680;SDS011;55836;49.858;6.756;2023-05-07T06:34:51;4.67;;;3.40;;
68680;SDS011;55836;49.858;6.756;2023-05-07T06:37:17;3.90;;;3.50;;
68680;SDS011;55836;49.858;6.756;2023-05-07T06:39:43;3.40;;;3.10;;
68680;SDS011;55836;49.858;6.756;2023-05-07T06:42:09;3.57;;;3.23;;
68680;SDS011;55836;49.858;6.756;2023-05-07T06:44:35;3.57;;;3.27;;
68680;SDS011;55836;49.858;6.756;2023-05-07T06:47:01;3.40;;;3.10;;
68680;SDS011;55836;49.858;6.756;2023-05-07T06:49:27;5.37;;;3.50;;
68680;SDS011;55836;49.858;6.756;2023-05-07T06:51:53;4.27;;;3.63;;
68680;SDS011;55836;49.858;6.756;2023-05-07T06:54:20;4.70;;;4.07;;
68680;SDS011;55836;49.858;6.756;2023-05-07T06:56:46;3.80;;;3.40;;
68680;SDS011;55836;49.858;6.756;2023-05-07T06:59:12;5.63;;;3.13;;
68680;SDS011;55836;49.858;6.756;2023-05-07T07:01:38;3.73;;;3.20;;
68680;SDS011;55836;49.858;6.756;2023-05-07T07:04:05;4.30;;;3.90;;
68680;SDS011;55836;49.858;6.756;2023-05-07T07:06:31;6.13;;;4.20;;
68680;SDS011;55836;49.858;6.756;2023-05-07T07:08:57;3.77;;;3.40;;
68680;SDS011;55836;49.858;6.756;2023-05-07T07:11:23;3.97;;;3.63;;
68680;SDS011;55836;49.858;6.756;2023-05-07T07:13:49;4.97;;;3.73;;
68680;SDS011;55836;49.858;6.756;2023-05-07T07:16:15;3.50;;;3.20;;
68680;SDS011;55836;49.858;6.756;2023-05-07T07:18:42;4.33;;;3.90;;
68680;SDS011;55836;49.858;6.756;2023-05-07T07:21:08;4.07;;;3.67;;
68680;SDS011;55836;49.858;6.756;2023-05-07T07:23:34;4.67;;;3.37;;
68680;SDS011;55836;49.858;6.756;2023-05-07T07:26:00;3.97;;;3.33;;
68680;SDS011;55836;49.858;6.756;2023-05-07T07:28:26;4.03;;;3.63;;
68680;SDS011;55836;49.858;6.756;2023-05-07T07:30:52;3.87;;;3.40;;
68680;SDS011;55836;49.858;6.756;2023-05-07T07:33:18;6.33;;;3.77;;
68680;SDS011;55836;49.858;6.756;2023-05-07T07:35:44;5.93;;;3.50;;
68680;SDS011;55836;49.858;6.756;2023-05-07T07:38:10;4.53;;;3.40;;
68680;SDS011;55836;49.858;6.756;2023-05-07T07:40:36;4.00;;;3.70;;
68680;SDS011;55836;49.858;6.756;2023-05-07T07:43:03;5.00;;;3.60;;
68680;SDS011;55836;49.858;6.756;2023-05-07T07:45:29;4.03;;;3.63;;
68680;SDS011;55836;49.858;6.756;2023-05-07T07:47:55;4.17;;;3.10;;
68680;SDS011;55836;49.858;6.756;2023-05-07T07:50:21;3.70;;;3.40;;
68680;SDS011;55836;49.858;6.756;2023-05-07T07:52:48;4.50;;;3.50;;
68680;SDS011;55836;49.858;6.756;2023-05-07T07:55:14;4.17;;;3.70;;
68680;SDS011;55836;49.858;6.756;2023-05-07T07:57:45;5.20;;;3.40;;
68680;SDS011;55836;49.858;6.756;2023-05-07T08:00:12;4.47;;;3.97;;
68680;SDS011;55836;49.858;6.756;2023-05-07T08:02:38;4.07;;;3.00;;
68680;SDS011;55836;49.858;6.756;2023-05-07T08:05:04;6.83;;;3.63;;
68680;SDS011;55836;49.858;6.756;2023-05-07T08:07:30;4.10;;;3.23;;
68680;SDS011;55836;49.858;6.756;2023-05-07T08:09:56;3.60;;;3.30;;
68680;SDS011;55836;49.858;6.756;2023-05-07T08:12:22;7.03;;;3.23;;
68680;SDS011;55836;49.858;6.756;2023-05-07T08:14:48;3.40;;;3.10;;
68680;SDS011;55836;49.858;6.756;2023-05-07T08:17:14;3.40;;;2.80;;
68680;SDS011;55836;49.858;6.756;2023-05-07T08:19:41;6.20;;;3.23;;
68680;SDS011;55836;49.858;6.756;2023-05-07T08:22:07;5.70;;;2.67;;
68680;SDS011;55836;49.858;6.756;2023-05-07T08:24:33;3.93;;;2.40;;
68680;SDS011;55836;49.858;6.756;2023-05-07T08:26:59;3.50;;;3.20;;
68680;SDS011;55836;49.858;6.756;2023-05-07T08:29:25;3.33;;;2.93;;
68680;SDS011;55836;49.858;6.756;2023-05-07T08:31:51;4.87;;;3.60;;
68680;SDS011;55836;49.858;6.756;2023-05-07T08:34:17;5.87;;;3.70;;
68680;SDS011;55836;49.858;6.756;2023-05-07T08:36:43;5.13;;;3.77;;
68680;SDS011;55836;49.858;6.756;2023-05-07T08:39:12;4.87;;;3.30;;
68680;SDS011;55836;49.858;6.756;2023-05-07T08:41:38;3.60;;;3.03;;
68680;SDS011;55836;49.858;6.756;2023-05-07T08:44:04;5.37;;;3.30;;
68680;SDS011;55836;49.858;6.756;2023-05-07T08:46:31;5.40;;;3.13;;
68680;SDS011;55836;49.858;6.756;2023-05-07T08:48:57;3.53;;;3.20;;
68680;SDS011;55836;49.858;6.756;2023-05-07T08:51:24;6.87;;;3.63;;
68680;SDS011;55836;49.858;6.756;2023-05-07T08:53:50;5.40;;;3.10;;
68680;SDS011;55836;49.858;6.756;2023-05-07T08:56:16;3.80;;;3.33;;
68680;SDS011;55836;49.858;6.756;2023-05-07T08:58:43;4.43;;;3.40;;
68680;SDS011;55836;49.858;6.756;2023-05-07T09:01:15;3.37;;;2.90;;
68680;SDS011;55836;49.858;6.756;2023-05-07T09:03:42;3.27;;;2.97;;
68680;SDS011;55836;49.858;6.756;2023-05-07T09:06:09;4.57;;;3.07;;
68680;SDS011;55836;49.858;6.756;2023-05-07T09:08:35;2.80;;;2.60;;
68680;SDS011;55836;49.858;6.756;2023-05-07T09:11:01;5.70;;;2.60;;
68680;SDS011;55836;49.858;6.756;2023-05-07T09:13:28;3.53;;;2.47;;
68680;SDS011;55836;49.858;6.756;2023-05-07T09:15:54;4.33;;;2.50;;
68680;SDS011;55836;49.858;6.756;2023-05-07T09:18:20;2.73;;;2.33;;
68680;SDS011;55836;49.858;6.756;2023-05-07T09:20:47;5.10;;;2.30;;
68680;SDS011;55836;49.858;6.756;2023-05-07T09:23:13;2.83;;;2.40;;
68680;SDS011;55836;49.858;6.756;2023-05-07T09:25:40;3.37;;;2.10;;
68680;SDS011;55836;49.858;6.756;2023-05-07T09:28:06;2.60;;;2.40;;
68680;SDS011;55836;49.858;6.756;2023-05-07T09:30:32;4.07;;;3.00;;
68680;SDS011;55836;49.858;6.756;2023-05-07T09:32:59;3.63;;;2.63;;
68680;SDS011;55836;49.858;6.756;2023-05-07T09:35:26;3.00;;;2.70;;
68680;SDS011;55836;49.858;6.756;2023-05-07T09:37:53;2.73;;;2.53;;
68680;SDS011;55836;49.858;6.756;2023-05-07T09:40:23;3.13;;;2.83;;
68680;SDS011;55836;49.858;6.756;2023-05-07T09:42:50;3.33;;;2.50;;
68680;SDS011;55836;49.858;6.756;2023-05-07T09:45:20;2.70;;;1.93;;
68680;SDS011;55836;49.858;6.756;2023-05-07T09:47:47;6.53;;;2.23;;
68680;SDS011;55836;49.858;6.756;2023-05-07T09:50:14;2.50;;;2.30;;
68680;SDS011;55836;49.858;6.756;2023-05-07T09:52:41;3.37;;;2.30;;
68680;SDS011;55836;49.858;6.756;2023-05-07T09:55:07;2.63;;;2.40;;
68680;SDS011;55836;49.858;6.756;2023-05-07T09:57:34;2.33;;;2.20;;
68680;SDS011;55836;49.858;6.756;2023-05-07T10:00:02;2.57;;;2.10;;
68680;SDS011;55836;49.858;6.756;2023-05-07T10:02:33;4.37;;;1.77;;
68680;SDS011;55836;49.858;6.756;2023-05-07T10:05:01;2.87;;;2.30;;
68680;SDS011;55836;49.858;6.756;2023-05-07T10:07:28;3.27;;;2.00;;
68680;SDS011;55836;49.858;6.756;2023-05-07T10:09:54;5.00;;;2.40;;
68680;SDS011;55836;49.858;6.756;2023-05-07T10:12:20;4.00;;;2.10;;
68680;SDS011;55836;49.858;6.756;2023-05-07T10:14:46;2.97;;;2.37;;
68680;SDS011;55836;49.858;6.756;2023-05-07T10:17:13;2.57;;;1.93;;
68680;SDS011;55836;49.858;6.756;2023-05-07T10:19:39;3.30;;;2.20;;
68680;SDS011;55836;49.858;6.756;2023-05-07T10:22:06;3.27;;;2.37;;
68680;SDS011;55836;49.858;6.756;2023-05-07T10:24:33;4.07;;;2.57;;
68680;SDS011;55836;49.858;6.756;2023-05-07T10:27:00;3.87;;;2.40;;
68680;SDS011;55836;49.858;6.756;2023-05-07T10:34:39;2.10;;;2.00;;
68680;SDS011;55836;49.858;6.756;2023-05-07T10:37:06;2.27;;;2.07;;
68680;SDS011;55836;49.858;6.756;2023-05-07T10:39:32;2.57;;;2.30;;
68680;SDS011;55836;49.858;6.756;2023-05-07T10:42:07;3.47;;;2.97;;
68680;SDS011;55836;49.858;6.756;2023-05-07T10:44:33;4.10;;;2.27;;
68680;SDS011;55836;49.858;6.756;2023-05-07T10:47:18;2.80;;;2.50;;
68680;SDS011;55836;49.858;6.756;2023-05-07T10:52:11;3.43;;;2.87;;
68680;SDS011;55836;49.858;6.756;2023-05-07T10:54:43;2.10;;;2.00;;
68680;SDS011;55836;49.858;6.756;2023-05-07T10:59:54;3.80;;;2.07;;
68680;SDS011;55836;49.858;6.756;2023-05-07T11:02:20;2.37;;;1.90;;
68680;SDS011;55836;49.858;6.756;2023-05-07T11:05:01;2.90;;;2.70;;
68680;SDS011;55836;49.858;6.756;2023-05-07T11:07:32;3.77;;;3.27;;
68680;SDS011;55836;49.858;6.756;2023-05-07T11:09:59;3.63;;;2.00;;
68680;SDS011;55836;49.858;6.756;2023-05-07T11:15:05;3.60;;;2.23;;
68680;SDS011;55836;49.858;6.756;2023-05-07T11:17:32;6.80;;;2.00;;
68680;SDS011;55836;49.858;6.756;2023-05-07T11:20:01;4.23;;;1.80;;
68680;SDS011;55836;49.858;6.756;2023-05-07T11:24:56;2.97;;;2.10;;
68680;SDS011;55836;49.858;6.756;2023-05-07T11:27:23;3.63;;;2.03;;
68680;SDS011;55836;49.858;6.756;2023-05-07T11:29:50;4.73;;;2.20;;
68680;SDS011;55836;49.858;6.756;2023-05-07T11:32:21;2.13;;;1.93;;
68680;SDS011;55836;49.858;6.756;2023-05-07T11:34:51;2.30;;;1.80;;
68680;SDS011;55836;49.858;6.756;2023-05-07T11:37:17;2.33;;;2.10;;
68680;SDS011;55836;49.858;6.756;2023-05-07T11:39:43;4.40;;;2.00;;
68680;SDS011;55836;49.858;6.756;2023-05-07T11:42:27;2.47;;;2.00;;
68680;SDS011;55836;49.858;6.756;2023-05-07T11:44:53;3.60;;;2.40;;
68680;SDS011;55836;49.858;6.756;2023-05-07T11:47:19;2.57;;;1.83;;
68680;SDS011;55836;49.858;6.756;2023-05-07T11:49:49;3.47;;;1.93;;
68680;SDS011;55836;49.858;6.756;2023-05-07T11:52:16;2.90;;;1.90;;
68680;SDS011;55836;49.858;6.756;2023-05-07T11:54:48;5.70;;;2.10;;
68680;SDS011;55836;49.858;6.756;2023-05-07T11:57:14;2.50;;;1.80;;
68680;SDS011;55836;49.858;6.756;2023-05-07T11:59:40;2.37;;;2.10;;
68680;SDS011;55836;49.858;6.756;2023-05-07T12:02:07;3.93;;;2.10;;
68680;SDS011;55836;49.858;6.756;2023-05-07T12:04:33;2.73;;;1.80;;
68680;SDS011;55836;49.858;6.756;2023-05-07T12:06:59;2.10;;;1.83;;
68680;SDS011;55836;49.858;6.756;2023-05-07T12:09:26;2.07;;;1.87;;
68680;SDS011;55836;49.858;6.756;2023-05-07T12:11:53;3.77;;;1.70;;
68680;SDS011;55836;49.858;6.756;2023-05-07T12:14:21;3.73;;;2.00;;
68680;SDS011;55836;49.858;6.756;2023-05-07T12:16:47;2.43;;;1.67;;
68680;SDS011;55836;49.858;6.756;2023-05-07T12:19:13;1.70;;;1.60;;
68680;SDS011;55836;49.858;6.756;2023-05-07T12:21:39;4.23;;;1.83;;
68680;SDS011;55836;49.858;6.756;2023-05-07T12:24:05;1.80;;;1.70;;
68680;SDS011;55836;49.858;6.756;2023-05-07T12:26:37;3.57;;;2.10;;
68680;SDS011;55836;49.858;6.756;2023-05-07T12:29:04;5.70;;;2.00;;
68680;SDS011;55836;49.858;6.756;2023-05-07T12:31:30;2.80;;;1.40;;
68680;SDS011;55836;49.858;6.756;2023-05-07T12:33:56;2.80;;;1.50;;
68680;SDS011;55836;49.858;6.756;2023-05-07T12:36:22;2.63;;;1.93;;
68680;SDS011;55836;49.858;6.756;2023-05-07T12:38:51;1.77;;;1.67;;
68680;SDS011;55836;49.858;6.756;2023-05-07T12:41:17;1.60;;;1.50;;
68680;SDS011;55836;49.858;6.756;2023-05-07T12:43:44;2.80;;;1.70;;
68680;SDS011;55836;49.858;6.756;2023-05-07T12:46:11;2.13;;;1.90;;
68680;SDS011;55836;49.858;6.756;2023-05-07T12:48:43;2.43;;;1.73;;
68680;SDS011;55836;49.858;6.756;2023-05-07T12:51:13;1.93;;;1.83;;
68680;SDS011;55836;49.858;6.756;2023-05-07T12:53:40;2.40;;;1.50;;
68680;SDS011;55836;49.858;6.756;2023-05-07T12:56:07;3.03;;;1.63;;
68680;SDS011;55836;49.858;6.756;2023-05-07T12:58:33;2.10;;;1.73;;
68680;SDS011;55836;49.858;6.756;2023-05-07T13:01:01;2.80;;;1.70;;
68680;SDS011;55836;49.858;6.756;2023-05-07T13:03:28;2.47;;;1.90;;
68680;SDS011;55836;49.858;6.756;2023-05-07T13:05:57;2.23;;;1.47;;
68680;SDS011;55836;49.858;6.756;2023-05-07T13:08:27;1.60;;;1.50;;
68680;SDS011;55836;49.858;6.756;2023-05-07T13:10:53;1.80;;;1.50;;
68680;SDS011;55836;49.858;6.756;2023-05-07T13:13:20;2.50;;;1.70;;
68680;SDS011;55836;49.858;6.756;2023-05-07T13:15:46;2.20;;;1.70;;
68680;SDS011;55836;49.858;6.756;2023-05-07T13:18:13;2.43;;;1.70;;
68680;SDS011;55836;49.858;6.756;2023-05-07T13:20:39;2.37;;;1.80;;
68680;SDS011;55836;49.858;6.756;2023-05-07T13:23:05;2.73;;;1.60;;
68680;SDS011;55836;49.858;6.756;2023-05-07T13:25:31;2.70;;;2.00;;
68680;SDS011;55836;49.858;6.756;2023-05-07T13:27:57;3.00;;;1.70;;
68680;SDS011;55836;49.858;6.756;2023-05-07T13:30:23;1.70;;;1.60;;
68680;SDS011;55836;49.858;6.756;2023-05-07T13:32:50;3.57;;;2.57;;
68680;SDS011;55836;49.858;6.756;2023-05-07T13:35:17;1.70;;;1.60;;
68680;SDS011;55836;49.858;6.756;2023-05-07T13:37:43;1.77;;;1.53;;
68680;SDS011;55836;49.858;6.756;2023-05-07T13:40:09;2.10;;;1.90;;
68680;SDS011;55836;49.858;6.756;2023-05-07T13:42:35;1.70;;;1.60;;
68680;SDS011;55836;49.858;6.756;2023-05-07T13:45:01;3.03;;;1.80;;
68680;SDS011;55836;49.858;6.756;2023-05-07T13:47:30;3.07;;;2.03;;
68680;SDS011;55836;49.858;6.756;2023-05-07T13:49:56;4.03;;;1.90;;
68680;SDS011;55836;49.858;6.756;2023-05-07T13:52:22;2.43;;;2.20;;
68680;SDS011;55836;49.858;6.756;2023-05-07T13:54:48;3.93;;;2.33;;
68680;SDS011;55836;49.858;6.756;2023-05-07T13:57:14;2.57;;;1.77;;
68680;SDS011;55836;49.858;6.756;2023-05-07T13:59:40;2.00;;;1.80;;
68680;SDS011;55836;49.858;6.756;2023-05-07T14:02:06;1.67;;;1.57;;
68680;SDS011;55836;49.858;6.756;2023-05-07T14:04:33;3.53;;;1.70;;
68680;SDS011;55836;49.858;6.756;2023-05-07T14:07:00;4.50;;;2.10;;
68680;SDS011;55836;49.858;6.756;2023-05-07T14:09:26;2.20;;;2.00;;
68680;SDS011;55836;49.858;6.756;2023-05-07T14:11:52;3.63;;;1.97;;
68680;SDS011;55836;49.858;6.756;2023-05-07T14:14:18;1.87;;;1.77;;
68680;SDS011;55836;49.858;6.756;2023-05-07T14:16:44;2.70;;;1.80;;
68680;SDS011;55836;49.858;6.756;2023-05-07T14:19:14;2.80;;;2.20;;
68680;SDS011;55836;49.858;6.756;2023-05-07T14:21:40;2.20;;;2.00;;
68680;SDS011;55836;49.858;6.756;2023-05-07T14:24:06;2.47;;;2.27;;
68680;SDS011;55836;49.858;6.756;2023-05-07T14:26:33;2.53;;;1.80;;
68680;SDS011;55836;49.858;6.756;2023-05-07T14:28:59;2.13;;;1.93;;
68680;SDS011;55836;49.858;6.756;2023-05-07T14:31:25;2.17;;;1.90;;
68680;SDS011;55836;49.858;6.756;2023-05-07T14:33:51;3.50;;;2.27;;
68680;SDS011;55836;49.858;6.756;2023-05-07T14:36:27;3.70;;;2.20;;
68680;SDS011;55836;49.858;6.756;2023-05-07T14:39:01;2.70;;;2.03;;
68680;SDS011;55836;49.858;6.756;2023-05-07T14:41:27;2.60;;;2.40;;
68680;SDS011;55836;49.858;6.756;2023-05-07T14:43:59;3.87;;;2.37;;
68680;SDS011;55836;49.858;6.756;2023-05-07T14:46:29;2.67;;;2.47;;
68680;SDS011;55836;49.858;6.756;2023-05-07T14:49:04;5.27;;;2.43;;
68680;SDS011;55836;49.858;6.756;2023-05-07T14:51:39;2.60;;;2.40;;
68680;SDS011;55836;49.858;6.756;2023-05-07T14:54:12;3.10;;;2.40;;
68680;SDS011;55836;49.858;6.756;2023-05-07T14:56:44;2.20;;;2.00;;
68680;SDS011;55836;49.858;6.756;2023-05-07T14:59:18;3.53;;;1.90;;
68680;SDS011;55836;49.858;6.756;2023-05-07T15:01:46;4.70;;;2.27;;